Time;durP1;ratioP1;P1;durP2;ratioP2;P2;SDS_P1;SDS_P2;PMS_P1;PMS_P2;Temp;Humidity;BMP_temperature;BMP_pressure;BME280_temperature;BME280_humidity;BME280_pressure;Samples;Min_cycle;Max_cycle;Signal;HPM_P1;HPM_P2
2022/11/18 00:00:50;;;;;;;21.60;12.40;;;2.00;99.90;;;;;;5013269;28;20470;-67
2022/11/18 00:03:16;;;;;;;18.90;12.13;;;2.00;99.90;;;;;;5013304;28;20169;-65
2022/11/18 00:05:42;;;;;;;20.70;14.20;;;1.90;99.90;;;;;;5013382;28;20423;-65
2022/11/18 00:08:07;;;;;;;26.10;15.40;;;1.90;99.90;;;;;;4994886;28;20205;-66
2022/11/18 00:10:36;;;;;;;17.70;12.27;;;1.80;99.90;;;;;;4993621;28;20172;-65
2022/11/18 00:15:46;;;;;;;18.70;12.90;;;1.80;99.90;;;;;;5005976;28;20409;-65
2022/11/18 00:18:12;;;;;;;20.40;12.90;;;1.80;99.90;;;;;;5032895;28;20851;-66
2022/11/18 00:20:38;;;;;;;20.03;12.10;;;1.80;99.90;;;;;;5032674;28;20496;-65
2022/11/18 00:23:04;;;;;;;20.30;13.33;;;1.80;99.90;;;;;;5029337;28;20213;-65
2022/11/18 00:25:29;;;;;;;19.20;12.70;;;1.80;99.90;;;;;;4993400;28;20810;-66
2022/11/18 00:27:55;;;;;;;18.77;12.47;;;1.80;99.90;;;;;;4993170;28;20431;-66
2022/11/18 00:30:21;;;;;;;19.47;12.40;;;1.80;99.90;;;;;;4993378;28;20175;-66
2022/11/18 00:32:46;;;;;;;19.90;12.73;;;1.80;99.90;;;;;;4993300;28;20503;-65
2022/11/18 00:35:12;;;;;;;25.07;12.77;;;1.80;99.90;;;;;;4992825;28;20196;-66
2022/11/18 00:37:37;;;;;;;22.30;13.20;;;1.80;99.90;;;;;;4993278;28;20185;-65
2022/11/18 00:40:04;;;;;;;18.33;12.70;;;1.80;99.90;;;;;;4992082;28;20561;-68
2022/11/18 00:45:13;;;;;;;17.50;11.63;;;1.80;99.90;;;;;;5011809;28;20565;-66
2022/11/18 00:47:39;;;;;;;17.20;12.00;;;1.80;99.90;;;;;;5012172;28;20470;-66
2022/11/18 00:50:05;;;;;;;21.27;12.83;;;1.90;99.90;;;;;;5011931;28;20207;-66
2022/11/18 00:52:31;;;;;;;18.70;12.27;;;1.90;99.90;;;;;;5012679;28;20181;-66
2022/11/18 00:54:56;;;;;;;17.43;12.03;;;1.90;99.90;;;;;;5011915;28;20865;-66
2022/11/18 00:57:22;;;;;;;19.23;12.17;;;1.80;99.90;;;;;;5003418;28;20208;-66
2022/11/18 00:59:47;;;;;;;19.70;12.60;;;1.70;99.90;;;;;;5012274;28;20164;-65
2022/11/18 01:02:13;;;;;;;14.40;10.40;;;1.70;99.90;;;;;;5012163;28;20697;-66
2022/11/18 01:04:38;;;;;;;19.90;12.50;;;1.70;99.90;;;;;;5012066;28;20183;-66
2022/11/18 01:07:04;;;;;;;20.10;13.40;;;1.70;99.90;;;;;;5011669;28;20200;-66
2022/11/18 01:09:30;;;;;;;17.17;12.97;;;1.60;99.90;;;;;;5012049;28;20222;-65
2022/11/18 01:14:39;;;;;;;19.27;13.33;;;1.50;99.90;;;;;;5004574;28;20748;-66
2022/11/18 01:17:05;;;;;;;18.30;11.93;;;1.60;99.90;;;;;;5011697;28;20450;-66
2022/11/18 01:19:30;;;;;;;15.43;11.13;;;1.60;99.90;;;;;;5010887;28;20200;-66
2022/11/18 01:22:01;;;;;;;16.97;12.30;;;1.50;99.90;;;;;;5011834;28;20180;-66
2022/11/18 01:24:28;;;;;;;15.87;11.27;;;1.40;99.90;;;;;;5011947;28;20539;-66
2022/11/18 01:26:53;;;;;;;21.63;13.90;;;1.40;99.90;;;;;;5011594;28;20465;-64
2022/11/18 01:29:19;;;;;;;15.93;11.20;;;1.40;99.90;;;;;;5011629;28;20486;-65
2022/11/18 01:31:44;;;;;;;19.10;13.70;;;1.40;99.90;;;;;;4992329;28;20184;-66
2022/11/18 01:34:10;;;;;;;15.77;12.30;;;1.30;99.90;;;;;;5011314;28;20310;-66
2022/11/18 01:36:36;;;;;;;17.00;12.37;;;1.30;99.90;;;;;;5011734;28;20165;-65
2022/11/18 01:39:02;;;;;;;17.13;11.67;;;1.30;99.90;;;;;;5011169;28;20815;-67
2022/11/18 01:41:27;;;;;;;20.50;12.60;;;1.30;99.90;;;;;;5011408;28;20208;-66
2022/11/18 01:43:58;;;;;;;16.30;11.57;;;1.30;99.90;;;;;;5011138;28;20179;-65
2022/11/18 01:46:26;;;;;;;16.83;11.97;;;1.30;99.90;;;;;;5006899;28;20682;-67
2022/11/18 01:48:57;;;;;;;19.83;12.83;;;1.30;99.90;;;;;;4996658;28;20497;-65
2022/11/18 01:51:33;;;;;;;21.20;12.67;;;1.30;99.90;;;;;;5011239;28;20799;-66
2022/11/18 01:54:05;;;;;;;18.60;12.40;;;1.30;99.90;;;;;;5011038;28;20454;-65
2022/11/18 01:56:38;;;;;;;20.77;12.93;;;1.30;99.90;;;;;;5011212;28;20978;-66
2022/11/18 01:59:21;;;;;;;16.70;11.70;;;1.40;99.90;;;;;;5011046;28;20461;-66
2022/11/18 02:01:46;;;;;;;17.70;11.67;;;1.30;99.90;;;;;;5005108;28;20567;-67
2022/11/18 02:04:13;;;;;;;20.10;12.33;;;1.30;99.90;;;;;;5003473;28;20514;-66
2022/11/18 02:06:42;;;;;;;20.20;11.40;;;1.30;99.90;;;;;;5011123;28;20195;-66
2022/11/18 02:09:08;;;;;;;19.27;11.37;;;1.30;99.90;;;;;;5011462;28;20419;-66
2022/11/18 02:14:28;;;;;;;19.60;11.87;;;1.30;99.90;;;;;;5011713;28;20226;-66
2022/11/18 02:17:15;;;;;;;19.30;11.17;;;1.30;99.90;;;;;;5003835;28;20433;-65
2022/11/18 02:19:46;;;;;;;18.53;13.23;;;1.30;99.90;;;;;;5010960;28;20464;-66
2022/11/18 02:22:45;;;;;;;14.20;10.60;;;1.30;99.90;;;;;;4998893;28;20477;-66
2022/11/18 02:25:40;;;;;;;19.40;12.53;;;1.30;99.90;;;;;;5010495;28;20419;-66
2022/11/18 02:28:27;;;;;;;16.90;12.27;;;1.30;99.90;;;;;;5010885;28;20489;-67
2022/11/18 02:31:06;;;;;;;14.30;10.93;;;1.40;99.90;;;;;;5013620;28;20423;-65
2022/11/18 02:33:40;;;;;;;17.87;11.67;;;1.30;99.90;;;;;;5014915;28;20455;-66
2022/11/18 02:36:19;;;;;;;20.07;12.57;;;1.30;99.90;;;;;;4999570;28;20880;-66
2022/11/18 02:38:51;;;;;;;16.27;12.17;;;1.30;99.90;;;;;;4995263;28;20462;-66
2022/11/18 02:41:23;;;;;;;16.40;11.17;;;1.30;99.90;;;;;;5013740;28;20418;-66
2022/11/18 02:43:53;;;;;;;20.33;12.97;;;1.30;99.90;;;;;;5015042;28;20431;-65
2022/11/18 02:46:41;;;;;;;18.90;11.73;;;1.20;99.90;;;;;;5015082;28;20427;-66
2022/11/18 02:49:15;;;;;;;17.43;11.67;;;1.20;99.90;;;;;;5014282;28;20513;-67
2022/11/18 02:51:43;;;;;;;17.10;12.10;;;1.20;99.90;;;;;;5012672;28;20873;-65
2022/11/18 02:54:12;;;;;;;16.40;11.93;;;1.20;99.90;;;;;;5031594;28;20489;-65
2022/11/18 02:56:38;;;;;;;15.83;11.40;;;1.20;99.90;;;;;;5014391;28;20411;-67
2022/11/18 02:59:04;;;;;;;15.57;10.70;;;1.10;99.90;;;;;;5014773;28;20447;-67
2022/11/18 03:01:33;;;;;;;17.40;12.50;;;1.10;99.90;;;;;;5014310;28;20442;-66
2022/11/18 03:03:58;;;;;;;16.57;10.97;;;1.10;99.90;;;;;;5014027;28;20435;-65
2022/11/18 03:06:41;;;;;;;18.77;12.93;;;1.10;99.90;;;;;;5008448;28;20439;-66
2022/11/18 03:09:27;;;;;;;20.23;13.87;;;1.10;99.90;;;;;;5006947;28;20203;-66
2022/11/18 03:12:18;;;;;;;15.67;9.87;;;1.10;99.90;;;;;;5014251;28;20403;-65
2022/11/18 03:15:10;;;;;;;20.13;11.43;;;1.00;99.90;;;;;;5014183;28;20553;-65
2022/11/18 03:17:45;;;;;;;21.60;13.60;;;1.00;99.90;;;;;;5013973;28;20435;-66
2022/11/18 03:20:16;;;;;;;19.60;13.77;;;0.90;99.90;;;;;;5013878;28;20414;-65
2022/11/18 03:23:03;;;;;;;17.20;10.30;;;0.90;99.90;;;;;;5013885;28;20395;-66
2022/11/18 03:25:52;;;;;;;20.00;12.23;;;0.90;99.90;;;;;;4992981;28;20440;-65
2022/11/18 03:28:48;;;;;;;22.23;12.80;;;0.90;99.90;;;;;;5003854;28;20431;-66
2022/11/18 03:31:23;;;;;;;15.30;12.20;;;0.90;99.90;;;;;;5014097;28;20878;-66
2022/11/18 03:33:58;;;;;;;18.70;12.30;;;0.80;99.90;;;;;;5013303;28;20462;-65
2022/11/18 03:36:28;;;;;;;17.73;12.33;;;0.80;99.90;;;;;;5013746;28;20403;-66
2022/11/18 03:38:57;;;;;;;21.27;11.73;;;0.80;99.90;;;;;;5010114;28;20442;-66
2022/11/18 03:41:25;;;;;;;17.87;13.27;;;0.80;99.90;;;;;;4992889;28;20405;-66
2022/11/18 03:43:59;;;;;;;17.37;12.27;;;0.70;99.90;;;;;;5008448;28;20787;-66
2022/11/18 03:46:33;;;;;;;18.63;11.50;;;0.70;99.90;;;;;;5012707;28;20431;-66
2022/11/18 03:49:00;;;;;;;16.87;12.63;;;0.70;99.90;;;;;;5013190;28;20822;-65
2022/11/18 03:51:32;;;;;;;23.10;15.40;;;0.70;99.90;;;;;;5013700;28;20424;-67
2022/11/18 03:54:07;;;;;;;20.10;12.50;;;0.70;99.90;;;;;;5013457;28;20538;-65
2022/11/18 03:56:41;;;;;;;19.53;14.67;;;0.70;99.90;;;;;;4992701;28;20440;-65
2022/11/18 03:59:10;;;;;;;21.53;13.73;;;0.70;99.90;;;;;;5010050;28;20501;-65
2022/11/18 04:01:48;;;;;;;21.20;13.63;;;0.60;99.90;;;;;;5013554;28;20957;-65
2022/11/18 04:04:14;;;;;;;20.13;14.50;;;0.60;99.90;;;;;;5012762;28;20912;-67
2022/11/18 04:06:58;;;;;;;17.97;12.17;;;0.60;99.90;;;;;;5013471;28;20462;-66
2022/11/18 04:09:28;;;;;;;23.40;13.73;;;0.60;99.90;;;;;;5012983;28;21051;-66
2022/11/18 04:12:04;;;;;;;21.20;13.80;;;0.60;99.90;;;;;;5013384;28;20411;-65
2022/11/18 04:14:51;;;;;;;23.20;14.50;;;0.50;99.90;;;;;;4996002;28;20459;-66
2022/11/18 04:17:20;;;;;;;26.10;15.03;;;0.40;99.90;;;;;;5013046;28;20418;-65
2022/11/18 04:19:46;;;;;;;25.40;14.37;;;0.40;99.90;;;;;;5012986;28;20857;-65
2022/11/18 04:22:12;;;;;;;28.20;16.90;;;0.30;99.90;;;;;;5012661;28;20424;-66
2022/11/18 04:24:38;;;;;;;23.40;15.30;;;0.30;99.90;;;;;;4995159;28;20493;-65
2022/11/18 04:27:05;;;;;;;29.33;14.90;;;0.30;99.90;;;;;;5006172;28;20562;-66
2022/11/18 04:29:31;;;;;;;27.40;14.47;;;0.20;99.90;;;;;;5012816;28;20426;-66
2022/11/18 04:31:58;;;;;;;27.70;15.40;;;0.20;99.90;;;;;;5012522;28;20431;-65
2022/11/18 04:34:24;;;;;;;21.43;13.87;;;0.20;99.90;;;;;;5012525;28;20987;-65
2022/11/18 04:36:49;;;;;;;28.20;17.20;;;0.20;99.90;;;;;;5012543;28;20411;-65
2022/11/18 04:39:16;;;;;;;23.87;16.40;;;0.30;99.90;;;;;;4995401;28;20211;-66
2022/11/18 04:41:55;;;;;;;35.13;16.83;;;0.20;99.90;;;;;;5012533;28;20180;-66
2022/11/18 04:44:28;;;;;;;29.23;16.93;;;0.20;99.90;;;;;;5009394;28;20427;-67
2022/11/18 04:46:56;;;;;;;31.20;16.50;;;0.20;99.90;;;;;;4994066;28;20440;-67
2022/11/18 04:49:22;;;;;;;30.13;13.10;;;0.20;99.90;;;;;;5009753;28;20498;-66
2022/11/18 04:51:48;;;;;;;25.07;15.60;;;0.10;99.90;;;;;;5012436;28;20414;-65
2022/11/18 04:54:15;;;;;;;32.90;16.83;;;0.10;99.90;;;;;;5011819;28;20473;-67
2022/11/18 04:56:42;;;;;;;35.63;20.07;;;0.10;99.90;;;;;;5012087;28;20507;-65
2022/11/18 04:59:08;;;;;;;23.23;16.90;;;0.10;99.90;;;;;;5012042;28;20423;-66
2022/11/18 05:01:34;;;;;;;29.67;16.77;;;0.20;99.90;;;;;;4999297;28;20437;-66
2022/11/18 05:04:00;;;;;;;27.73;16.43;;;0.10;99.90;;;;;;5012396;28;20767;-65
2022/11/18 05:06:27;;;;;;;25.40;15.70;;;0.10;99.90;;;;;;5011788;28;20231;-65
2022/11/18 05:08:52;;;;;;;28.80;15.67;;;0.20;99.90;;;;;;4993967;28;20828;-66
2022/11/18 05:14:02;;;;;;;25.70;15.07;;;0.10;99.90;;;;;;4998139;28;20290;-66
2022/11/18 05:16:28;;;;;;;27.03;15.53;;;0.00;99.90;;;;;;5005851;28;20452;-65
2022/11/18 05:18:53;;;;;;;34.33;16.77;;;0.10;99.90;;;;;;5011125;28;21911;-66
2022/11/18 05:21:19;;;;;;;30.60;15.23;;;0.10;99.90;;;;;;5010626;28;20180;-65
2022/11/18 05:23:45;;;;;;;26.10;14.47;;;0.10;99.90;;;;;;5011692;28;20275;-66
2022/11/18 05:26:11;;;;;;;35.67;17.60;;;0.10;99.90;;;;;;5011709;28;20252;-66
2022/11/18 05:28:37;;;;;;;33.07;16.57;;;0.10;99.90;;;;;;5011453;28;20211;-64
2022/11/18 05:31:07;;;;;;;26.37;15.77;;;0.10;99.90;;;;;;5011762;28;20419;-65
2022/11/18 05:33:32;;;;;;;22.77;15.03;;;0.20;99.90;;;;;;4994873;28;20555;-66
2022/11/18 05:36:02;;;;;;;34.23;14.90;;;0.20;99.90;;;;;;5011632;28;20494;-66
2022/11/18 05:38:28;;;;;;;23.50;15.00;;;0.10;99.90;;;;;;5011579;28;20665;-66
2022/11/18 05:40:54;;;;;;;21.80;15.90;;;0.20;99.90;;;;;;5010938;28;20522;-65
2022/11/18 05:43:19;;;;;;;24.17;15.37;;;0.20;99.90;;;;;;5011644;28;20180;-66
2022/11/18 05:45:45;;;;;;;25.43;15.20;;;0.20;99.90;;;;;;5011280;28;20238;-66
2022/11/18 05:48:11;;;;;;;20.70;13.80;;;0.20;99.90;;;;;;5011524;28;20626;-66
2022/11/18 05:50:37;;;;;;;25.53;14.83;;;0.20;99.90;;;;;;4998188;28;20601;-66
2022/11/18 05:53:03;;;;;;;24.43;14.10;;;0.20;99.90;;;;;;5000365;28;20212;-66
2022/11/18 05:55:39;;;;;;;25.20;14.80;;;0.20;99.90;;;;;;5011322;28;20434;-67
2022/11/18 05:58:04;;;;;;;21.97;14.53;;;0.30;99.90;;;;;;5007079;28;20482;-65
2022/11/18 06:00:31;;;;;;;24.43;12.00;;;0.20;99.90;;;;;;5005766;28;20672;-66
2022/11/18 06:02:58;;;;;;;21.57;12.13;;;0.20;99.90;;;;;;5010885;28;20295;-66
2022/11/18 06:05:25;;;;;;;20.47;11.73;;;0.20;99.90;;;;;;5046430;22;20857;-68
2022/11/18 06:07:54;;;;;;;17.80;12.07;;;0.20;99.90;;;;;;5019828;28;20469;-68
2022/11/18 06:10:24;;;;;;;19.07;10.70;;;0.20;99.90;;;;;;5001626;28;20849;-68
2022/11/18 06:12:54;;;;;;;20.97;12.43;;;0.20;99.90;;;;;;5019106;28;20779;-68
2022/11/18 06:15:31;;;;;;;17.40;11.33;;;0.10;99.90;;;;;;5024583;28;20462;-68
2022/11/18 06:18:05;;;;;;;18.00;8.30;;;0.10;99.90;;;;;;5032506;28;20763;-67
2022/11/18 06:20:34;;;;;;;27.20;12.63;;;0.10;99.90;;;;;;5017386;28;20488;-67
2022/11/18 06:23:00;;;;;;;17.60;11.00;;;0.10;99.90;;;;;;5019827;28;20832;-68
2022/11/18 06:25:27;;;;;;;19.33;11.00;;;0.20;99.90;;;;;;5001464;28;20482;-68
2022/11/18 06:27:56;;;;;;;16.80;12.13;;;0.10;99.90;;;;;;5018359;28;20419;-67
2022/11/18 06:30:22;;;;;;;18.03;10.77;;;0.10;99.90;;;;;;5010881;28;20479;-67
2022/11/18 06:32:47;;;;;;;17.77;9.60;;;0.20;99.90;;;;;;5023979;28;20786;-68
2022/11/18 06:35:13;;;;;;;17.33;12.37;;;0.10;99.90;;;;;;5020976;28;20832;-67
2022/11/18 06:37:39;;;;;;;21.27;11.50;;;0.10;99.90;;;;;;5018961;28;20168;-66
2022/11/18 06:40:05;;;;;;;20.07;11.47;;;0.10;99.90;;;;;;5028136;28;20429;-68
2022/11/18 06:45:15;;;;;;;22.10;12.40;;;0.00;99.90;;;;;;5032441;28;20495;-69
2022/11/18 06:47:41;;;;;;;17.70;12.43;;;0.10;99.90;;;;;;5027234;28;20415;-69
2022/11/18 06:50:07;;;;;;;21.67;10.80;;;0.10;99.90;;;;;;5019619;28;20208;-69
2022/11/18 06:52:32;;;;;;;21.20;12.20;;;0.10;99.90;;;;;;5031141;28;20543;-68
2022/11/18 06:54:58;;;;;;;15.67;9.53;;;0.10;99.90;;;;;;5029360;28;20471;-69
2022/11/18 06:57:23;;;;;;;23.67;11.00;;;0.10;99.90;;;;;;5018382;28;20184;-69
2022/11/18 06:59:49;;;;;;;21.93;12.30;;;0.00;99.90;;;;;;5021957;28;20173;-69
2022/11/18 07:02:17;;;;;;;16.53;9.80;;;0.10;99.90;;;;;;5026890;28;20182;-70
2022/11/18 07:04:46;;;;;;;22.30;11.93;;;0.10;99.90;;;;;;5031351;28;20199;-69
2022/11/18 07:07:11;;;;;;;17.83;10.43;;;0.00;99.90;;;;;;5043527;28;20478;-68
2022/11/18 07:09:37;;;;;;;17.73;11.90;;;0.00;99.90;;;;;;5013528;28;20901;-69
2022/11/18 07:12:03;;;;;;;18.20;12.10;;;0.00;99.90;;;;;;5031059;28;20176;-68
2022/11/18 07:14:29;;;;;;;18.57;11.37;;;0.00;99.90;;;;;;5037675;28;20215;-67
2022/11/18 07:16:54;;;;;;;16.83;12.17;;;0.00;99.90;;;;;;5033986;28;20410;-70
2022/11/18 07:19:20;;;;;;;17.30;10.40;;;0.00;99.90;;;;;;5034750;28;20212;-68
2022/11/18 07:21:46;;;;;;;19.50;10.70;;;0.00;99.90;;;;;;5034265;28;20688;-68
2022/11/18 07:24:13;;;;;;;20.30;11.93;;;0.00;99.90;;;;;;5034978;28;20564;-68
2022/11/18 07:26:39;;;;;;;17.00;10.87;;;0.00;99.90;;;;;;5034938;28;20652;-69
2022/11/18 07:29:05;;;;;;;21.33;11.60;;;0.00;99.90;;;;;;5033302;28;20493;-69
2022/11/18 07:31:32;;;;;;;13.20;10.23;;;0.10;99.90;;;;;;5035457;28;20414;-69
2022/11/18 07:33:58;;;;;;;14.47;9.60;;;0.00;99.90;;;;;;5034717;28;20204;-69
2022/11/18 07:36:28;;;;;;;16.80;11.07;;;0.00;99.90;;;;;;5035125;28;20409;-68
2022/11/18 07:38:54;;;;;;;19.73;12.13;;;0.00;99.90;;;;;;5033904;28;20186;-69
2022/11/18 07:41:22;;;;;;;14.50;10.77;;;0.00;99.90;;;;;;5034259;28;20829;-69
2022/11/18 07:43:49;;;;;;;16.23;10.07;;;0.00;99.90;;;;;;5015834;28;20437;-68
2022/11/18 07:46:18;;;;;;;17.60;12.23;;;0.00;99.90;;;;;;5028728;28;20442;-68
2022/11/18 07:48:45;;;;;;;16.00;10.50;;;0.10;99.90;;;;;;5032583;28;20512;-69
2022/11/18 07:51:12;;;;;;;12.90;9.60;;;0.00;99.90;;;;;;5032955;28;20482;-68
2022/11/18 07:53:37;;;;;;;27.37;12.77;;;0.10;99.90;;;;;;5028094;28;20459;-68
2022/11/18 07:56:04;;;;;;;19.27;11.80;;;0.10;99.90;;;;;;5033695;28;20481;-69
2022/11/18 07:58:30;;;;;;;25.30;11.70;;;0.10;99.90;;;;;;5033002;28;20509;-69
2022/11/18 08:00:55;;;;;;;14.17;10.60;;;0.10;99.90;;;;;;5024499;28;21412;-68
2022/11/18 08:03:25;;;;;;;17.57;12.03;;;0.10;99.90;;;;;;5035762;28;20198;-69
2022/11/18 08:05:51;;;;;;;19.63;10.57;;;0.10;99.90;;;;;;5052979;28;20448;-68
2022/11/18 08:08:17;;;;;;;17.80;11.30;;;0.10;99.90;;;;;;5031959;28;20426;-68
2022/11/18 08:10:42;;;;;;;26.60;11.37;;;0.10;99.90;;;;;;5033121;28;20168;-69
2022/11/18 08:13:08;;;;;;;16.50;10.83;;;0.10;99.90;;;;;;5031815;28;20180;-69
2022/11/18 08:15:33;;;;;;;15.67;10.60;;;0.20;99.90;;;;;;5029517;28;20531;-69
2022/11/18 08:17:59;;;;;;;19.40;12.00;;;0.10;99.90;;;;;;5040139;28;20183;-71
2022/11/18 08:20:26;;;;;;;17.97;11.47;;;0.10;99.90;;;;;;5041237;28;20586;-69
2022/11/18 08:22:52;;;;;;;14.60;10.07;;;0.00;99.90;;;;;;5020844;28;20263;-69
2022/11/18 08:25:18;;;;;;;17.13;11.43;;;0.00;99.90;;;;;;5033334;28;21159;-69
2022/11/18 08:27:43;;;;;;;21.43;12.47;;;0.00;99.90;;;;;;5014771;28;20183;-69
2022/11/18 08:30:09;;;;;;;17.57;11.40;;;0.00;99.90;;;;;;5033416;28;20214;-69
2022/11/18 08:32:35;;;;;;;18.47;12.60;;;0.10;99.90;;;;;;5033033;28;20176;-68
2022/11/18 08:35:01;;;;;;;20.10;14.73;;;0.10;99.90;;;;;;5031056;28;20786;-69
2022/11/18 08:37:26;;;;;;;16.17;10.60;;;0.10;99.90;;;;;;5032993;28;20176;-68
2022/11/18 08:39:52;;;;;;;13.87;9.33;;;0.10;99.90;;;;;;5032780;28;20164;-68
2022/11/18 08:42:21;;;;;;;15.87;11.13;;;0.00;99.90;;;;;;5032856;28;20167;-69
2022/11/18 08:44:47;;;;;;;19.83;11.50;;;0.00;99.90;;;;;;5032810;28;20635;-70
2022/11/18 08:47:13;;;;;;;14.63;10.60;;;0.00;99.90;;;;;;5032784;28;20418;-69
2022/11/18 08:49:38;;;;;;;14.20;10.43;;;-0.10;99.90;;;;;;5031362;28;20421;-69
2022/11/18 08:52:04;;;;;;;15.27;10.50;;;-0.20;99.90;;;;;;5032841;28;20183;-68
2022/11/18 08:54:30;;;;;;;16.77;9.40;;;-0.20;99.90;;;;;;5032617;28;20633;-68
2022/11/18 08:56:56;;;;;;;14.27;10.37;;;-0.30;99.90;;;;;;5032531;28;20669;-69
2022/11/18 08:59:21;;;;;;;14.80;11.27;;;-0.30;99.90;;;;;;5032603;28;20406;-69
2022/11/18 09:01:47;;;;;;;19.33;11.30;;;-0.30;99.90;;;;;;5032587;28;20262;-69
2022/11/18 09:04:13;;;;;;;15.27;9.43;;;-0.30;99.90;;;;;;5032391;28;20203;-69
2022/11/18 09:06:39;;;;;;;16.10;11.17;;;-0.30;99.90;;;;;;5031051;28;20242;-70
2022/11/18 09:09:06;;;;;;;15.63;10.43;;;-0.30;99.90;;;;;;5029264;28;20274;-69
2022/11/18 09:11:31;;;;;;;16.53;10.00;;;-0.30;99.90;;;;;;5052846;28;20452;-69
2022/11/18 09:13:58;;;;;;;16.97;10.17;;;-0.30;99.90;;;;;;5043305;28;20478;-69
2022/11/18 09:16:25;;;;;;;17.67;11.60;;;-0.30;99.90;;;;;;5032127;28;20219;-68
2022/11/18 09:18:51;;;;;;;20.50;10.30;;;-0.30;99.90;;;;;;5032486;28;20717;-69
2022/11/18 09:21:17;;;;;;;16.97;9.63;;;-0.30;99.90;;;;;;5032607;28;20413;-68
2022/11/18 09:23:43;;;;;;;12.73;8.10;;;-0.30;99.90;;;;;;5032125;28;20275;-70
2022/11/18 09:26:11;;;;;;;15.40;9.30;;;-0.30;99.90;;;;;;5025851;28;20504;-69
2022/11/18 09:28:37;;;;;;;11.60;9.37;;;-0.20;99.90;;;;;;5016885;28;20442;-69
2022/11/18 09:31:07;;;;;;;13.57;9.30;;;-0.30;99.90;;;;;;5033267;28;20403;-69
2022/11/18 09:33:34;;;;;;;16.30;9.23;;;-0.20;99.90;;;;;;5033125;28;20455;-69
2022/11/18 09:36:00;;;;;;;12.70;7.93;;;-0.20;99.90;;;;;;5032766;28;20410;-69
2022/11/18 09:38:28;;;;;;;9.60;7.60;;;-0.20;99.90;;;;;;5032279;28;20406;-70
2022/11/18 09:41:08;;;;;;;10.63;9.50;;;-0.20;99.90;;;;;;5031533;28;20410;-69
2022/11/18 09:43:44;;;;;;;11.20;8.50;;;-0.20;99.90;;;;;;5032193;28;20805;-69
2022/11/18 09:46:35;;;;;;;11.13;9.80;;;-0.10;99.90;;;;;;5030894;28;20496;-68
2022/11/18 09:49:12;;;;;;;11.57;6.53;;;-0.10;99.90;;;;;;5032167;28;20461;-67
2022/11/18 09:51:41;;;;;;;11.87;7.93;;;-0.20;99.90;;;;;;5031595;28;20455;-68
2022/11/18 09:54:11;;;;;;;6.77;6.13;;;-0.20;99.90;;;;;;5031409;28;20489;-67
2022/11/18 09:56:39;;;;;;;9.40;6.80;;;-0.20;99.90;;;;;;5031582;28;20390;-68
2022/11/18 09:59:05;;;;;;;8.20;6.77;;;-0.10;99.90;;;;;;5032095;28;21077;-68
2022/11/18 10:01:31;;;;;;;10.17;6.27;;;-0.10;99.90;;;;;;5030916;28;20502;-69
2022/11/18 10:03:56;;;;;;;9.90;6.47;;;-0.20;99.90;;;;;;5030794;28;23663;-68
2022/11/18 10:06:26;;;;;;;8.10;6.90;;;-0.10;99.90;;;;;;5019319;28;20676;-67
2022/11/18 10:09:17;;;;;;;9.17;7.30;;;-0.10;99.90;;;;;;5029367;28;20179;-68
2022/11/18 10:12:09;;;;;;;8.37;5.17;;;-0.10;99.90;;;;;;5023816;28;20832;-69
2022/11/18 10:15:02;;;;;;;6.87;5.30;;;-0.10;99.90;;;;;;4992004;28;20466;-68
2022/11/18 10:17:43;;;;;;;7.90;6.43;;;-0.10;99.90;;;;;;5021585;28;20451;-69
2022/11/18 10:20:27;;;;;;;6.33;4.60;;;-0.10;99.90;;;;;;5010913;28;20411;-69
2022/11/18 10:23:21;;;;;;;6.27;4.57;;;0.00;99.90;;;;;;5011636;28;20424;-69
2022/11/18 10:25:47;;;;;;;4.97;4.47;;;0.00;99.90;;;;;;5011298;28;20422;-69
2022/11/18 10:28:22;;;;;;;9.60;5.33;;;0.00;99.90;;;;;;5019531;28;20733;-67
2022/11/18 10:30:48;;;;;;;7.47;5.20;;;0.10;99.90;;;;;;5025007;28;20187;-68
2022/11/18 10:33:20;;;;;;;5.43;4.83;;;0.00;99.90;;;;;;5027203;28;20532;-67
2022/11/18 10:35:46;;;;;;;5.50;4.97;;;0.00;99.90;;;;;;5026242;28;21127;-67
2022/11/18 10:38:18;;;;;;;4.70;4.20;;;0.00;99.90;;;;;;5029994;28;20428;-67
2022/11/18 10:41:04;;;;;;;7.60;4.60;;;-0.10;99.90;;;;;;5028248;28;20179;-68
2022/11/18 10:43:56;;;;;;;12.43;5.73;;;0.00;99.90;;;;;;5022662;28;20557;-68
2022/11/18 10:46:27;;;;;;;7.93;5.33;;;0.10;99.90;;;;;;5022210;28;20429;-68
2022/11/18 10:49:15;;;;;;;4.47;4.07;;;0.10;99.90;;;;;;5019278;28;20882;-68
2022/11/18 10:52:02;;;;;;;6.03;4.50;;;0.20;99.90;;;;;;5019692;28;20431;-68
2022/11/18 10:54:28;;;;;;;7.87;5.13;;;0.10;99.90;;;;;;5037991;28;20800;-69
2022/11/18 10:57:03;;;;;;;6.20;4.97;;;0.10;99.90;;;;;;5037531;28;20426;-69
2022/11/18 10:59:33;;;;;;;8.77;6.30;;;0.10;99.90;;;;;;5025119;28;20218;-68
2022/11/18 11:02:09;;;;;;;4.93;3.50;;;0.10;99.90;;;;;;5034437;28;20549;-68
2022/11/18 11:04:36;;;;;;;10.87;5.33;;;0.10;99.90;;;;;;5011679;28;20454;-67
2022/11/18 11:07:37;;;;;;;10.37;5.67;;;0.10;99.90;;;;;;5034157;28;20423;-69
2022/11/18 11:10:11;;;;;;;8.00;6.23;;;0.20;99.90;;;;;;5013479;28;20436;-68
2022/11/18 11:12:52;;;;;;;6.50;4.90;;;0.20;99.90;;;;;;5015910;28;20756;-68
2022/11/18 11:15:34;;;;;;;8.40;5.60;;;0.10;99.90;;;;;;5033441;28;20469;-68
2022/11/18 11:20:58;;;;;;;9.30;5.50;;;0.10;99.90;;;;;;5034031;28;20927;-68
2022/11/18 11:23:24;;;;;;;8.97;5.80;;;0.00;99.90;;;;;;5025587;28;20415;-74
2022/11/18 11:25:52;;;;;;;5.90;5.30;;;0.10;99.90;;;;;;4996450;28;20562;-67
2022/11/18 11:28:32;;;;;;;7.40;5.57;;;0.10;99.90;;;;;;5014615;28;20403;-68
2022/11/18 11:31:20;;;;;;;6.00;4.50;;;0.20;99.90;;;;;;5010274;28;20751;-68
2022/11/18 11:34:27;;;;;;;9.20;5.80;;;0.20;99.90;;;;;;5013642;28;20447;-67
2022/11/18 11:37:08;;;;;;;8.53;6.13;;;0.20;99.90;;;;;;5006587;28;20533;-67
2022/11/18 11:39:55;;;;;;;6.70;5.30;;;0.40;99.90;;;;;;5033686;28;20485;-69
2022/11/18 11:42:47;;;;;;;7.80;5.90;;;0.40;99.90;;;;;;5024265;28;20418;-68
2022/11/18 11:48:50;;;;;;;6.33;4.93;;;0.40;99.90;;;;;;5023868;28;20433;-67
2022/11/18 11:51:31;;;;;;;6.80;5.60;;;0.40;99.90;;;;;;5017543;28;20952;-68
2022/11/18 11:54:11;;;;;;;10.60;5.57;;;0.50;99.90;;;;;;5013315;28;20463;-68
2022/11/18 11:56:44;;;;;;;9.27;5.93;;;0.50;99.90;;;;;;5015017;28;20423;-67
2022/11/18 11:59:25;;;;;;;8.33;5.63;;;0.60;99.90;;;;;;5013727;28;20427;-68
2022/11/18 12:02:02;;;;;;;18.30;6.27;;;0.50;99.90;;;;;;5030594;28;20506;-69
2022/11/18 12:04:39;;;;;;;7.03;5.47;;;0.60;99.90;;;;;;5022626;28;20466;-68
2022/11/18 12:07:52;;;;;;;8.50;6.07;;;0.60;99.90;;;;;;5029651;28;20421;-68
2022/11/18 12:10:28;;;;;;;6.90;5.67;;;0.70;99.90;;;;;;5036590;23;20493;-68
2022/11/18 12:16:15;;;;;;;10.80;6.30;;;0.80;99.90;;;;;;5044197;28;20452;-68
2022/11/18 12:18:49;;;;;;;21.03;11.47;;;0.80;99.90;;;;;;5042227;28;20417;-67
2022/11/18 12:21:45;;;;;;;13.10;7.90;;;0.80;99.90;;;;;;5040021;28;20930;-69
2022/11/18 12:24:17;;;;;;;17.60;7.63;;;0.90;99.90;;;;;;5052062;28;20406;-67
2022/11/18 12:26:47;;;;;;;14.40;6.50;;;1.00;99.90;;;;;;5049270;28;20412;-68
2022/11/18 12:32:41;;;;;;;6.47;4.90;;;1.00;99.90;;;;;;5046541;28;20401;-69
2022/11/18 12:35:12;;;;;;;6.73;4.87;;;0.80;99.90;;;;;;5045574;28;20536;-67
2022/11/18 12:37:50;;;;;;;5.30;3.67;;;0.70;99.90;;;;;;5064321;28;20415;-69
2022/11/18 12:40:43;;;;;;;6.97;5.10;;;0.60;99.90;;;;;;5049989;28;21267;-65
2022/11/18 12:47:20;;;;;;;8.40;5.60;;;0.50;99.90;;;;;;5045851;28;20833;-67
2022/11/18 12:49:45;;;;;;;5.93;4.90;;;0.40;99.90;;;;;;5047773;28;20438;-66
2022/11/18 12:52:29;;;;;;;6.87;4.13;;;0.30;99.90;;;;;;5048419;28;20474;-67
2022/11/18 12:55:00;;;;;;;7.57;4.83;;;0.30;99.90;;;;;;5050855;28;20202;-68
2022/11/18 12:57:32;;;;;;;6.80;4.77;;;0.30;99.90;;;;;;5052329;28;20467;-68
2022/11/18 13:00:14;;;;;;;8.50;5.50;;;0.40;99.90;;;;;;5050109;28;20935;-66
2022/11/18 13:02:50;;;;;;;5.50;4.20;;;0.40;99.90;;;;;;5052008;28;20410;-67
2022/11/18 13:05:25;;;;;;;6.63;5.07;;;0.40;99.90;;;;;;5043199;28;20471;-68
2022/11/18 13:08:12;;;;;;;4.93;4.33;;;0.30;99.90;;;;;;5014926;28;20436;-68
2022/11/18 13:10:42;;;;;;;8.50;5.23;;;0.40;99.90;;;;;;5043330;28;20461;-68
2022/11/18 13:13:30;;;;;;;5.97;5.37;;;0.40;99.90;;;;;;5033390;28;20417;-68
2022/11/18 13:18:52;;;;;;;6.40;4.43;;;0.30;99.90;;;;;;5048343;28;20464;-67
2022/11/18 13:24:12;;;;;;;7.50;4.30;;;0.20;99.90;;;;;;5037079;28;20424;-68
2022/11/18 13:26:40;;;;;;;5.33;4.80;;;0.10;99.90;;;;;;5051549;28;20423;-67
2022/11/18 13:29:25;;;;;;;10.43;5.00;;;0.00;99.90;;;;;;5045562;28;20843;-69
2022/11/18 13:31:53;;;;;;;4.90;4.00;;;0.00;99.90;;;;;;5048058;28;20427;-67
2022/11/18 13:34:22;;;;;;;4.83;3.67;;;0.00;99.90;;;;;;5051906;28;20445;-68
2022/11/18 13:36:49;;;;;;;6.03;4.83;;;0.00;99.90;;;;;;5052523;28;20411;-68
2022/11/18 13:39:23;;;;;;;7.40;4.57;;;0.00;99.90;;;;;;5051131;28;20424;-67